createdAt,value
2019-02-25T00:02:08.358Z,100500.06
2019-02-25T00:07:13.527Z,100498.52
2019-02-25T00:12:19.310Z,100501.05
2019-02-25T00:17:24.521Z,100495.27
2019-02-25T00:22:30.406Z,100495.02
2019-02-25T00:27:36.139Z,100498.59
2019-02-25T00:32:42.173Z,100497.05
2019-02-25T00:37:47.543Z,100504.16
2019-02-25T00:42:52.803Z,100509.67
2019-02-25T00:47:57.960Z,100501.79
2019-02-25T00:53:03.070Z,100499.58
2019-02-25T00:58:08.733Z,100509.40
2019-02-25T01:03:14.198Z,100495.09
2019-02-25T01:08:19.741Z,100499.69
2019-02-25T01:13:24.901Z,100497.92
2019-02-25T01:18:30.404Z,100487.61
2019-02-25T01:23:35.849Z,100481.65
2019-02-25T01:28:40.926Z,100481.13
2019-02-25T01:33:46.831Z,100479.55
2019-02-25T01:38:51.910Z,100463.82
2019-02-25T01:43:57.559Z,100458.43
2019-02-25T01:49:04.234Z,100462.73
2019-02-25T01:54:09.731Z,100459.78
2019-02-25T01:59:14.834Z,100466.20
2019-02-25T02:04:19.837Z,100472.13
2019-02-25T02:09:25.074Z,100460.67
2019-02-25T02:14:31.080Z,100460.78
2019-02-25T02:19:36.157Z,100470.29
2019-02-25T02:24:41.311Z,100460.59
2019-02-25T02:29:46.386Z,100452.52
2019-02-25T02:34:52.001Z,100443.32
2019-02-25T02:39:57.004Z,100452.83
2019-02-25T02:45:21.388Z,100454.77
2019-02-25T02:50:27.262Z,100466.59
2019-02-25T02:55:32.387Z,100463.05
2019-02-25T03:00:37.549Z,100450.96
2019-02-25T03:05:42.726Z,100445.56
2019-02-25T03:10:47.807Z,100453.38
2019-02-25T03:15:52.893Z,100464.75
2019-02-25T03:20:57.980Z,100463.81
2019-02-25T03:26:03.189Z,100464.94
2019-02-25T03:31:08.995Z,100461.20
2019-02-25T03:36:14.493Z,100464.92
2019-02-25T03:41:20.517Z,100467.52
2019-02-25T03:46:26.281Z,100461.01
2019-02-25T03:51:31.361Z,100448.25
2019-02-25T03:56:36.516Z,100450.23
2019-02-25T04:01:41.946Z,100446.87
2019-02-25T04:06:47.412Z,100452.08
2019-02-25T04:11:52.486Z,100457.39
2019-02-25T04:17:00.217Z,100467.23
2019-02-25T04:22:06.221Z,100462.04
2019-02-25T04:27:11.403Z,100454.88
2019-02-25T04:32:17.001Z,100464.55
2019-02-25T04:37:22.403Z,100462.51
2019-02-25T04:42:28.940Z,100474.95
2019-02-25T04:47:34.688Z,100476.00
2019-02-25T04:52:39.989Z,100464.83
2019-02-25T04:57:46.202Z,100455.62
2019-02-25T05:02:51.375Z,100461.19
2019-02-25T05:07:56.730Z,100458.68
2019-02-25T05:13:05.789Z,100456.17
2019-02-25T05:18:10.962Z,100443.98
2019-02-25T05:23:17.120Z,100430.84
2019-02-25T05:28:23.341Z,100436.34
2019-02-25T05:33:28.934Z,100438.00
2019-02-25T05:38:34.103Z,100438.09
2019-02-25T05:43:39.317Z,100428.89
2019-02-25T05:48:44.894Z,100439.56
2019-02-25T05:53:50.072Z,100446.98
2019-02-25T05:58:56.011Z,100440.22
2019-02-25T06:04:01.544Z,100441.23
2019-02-25T06:09:08.592Z,100440.09
2019-02-25T06:14:14.459Z,100451.53
2019-02-25T06:19:19.765Z,100455.05
2019-02-25T06:24:25.294Z,100453.29
2019-02-25T06:29:30.478Z,100458.95
2019-02-25T06:34:36.020Z,100456.45
2019-02-25T06:39:42.201Z,100457.39
2019-02-25T06:44:47.403Z,100453.52
2019-02-25T06:49:52.583Z,100455.31
2019-02-25T06:54:57.878Z,100462.02
2019-02-25T07:00:03.102Z,100470.27
2019-02-25T07:05:23.619Z,100484.98
2019-02-25T07:10:59.871Z,100474.39
2019-02-25T07:16:29.950Z,100484.64
2019-02-25T07:21:53.438Z,100482.59
2019-02-25T07:27:24.897Z,100481.31
2019-02-25T07:32:53.231Z,100496.95
2019-02-25T07:38:26.267Z,100493.30
2019-02-25T07:43:56.435Z,100489.94
2019-02-25T07:49:20.629Z,100493.38
2019-02-25T07:55:03.246Z,100489.44
2019-02-25T08:00:18.613Z,100496.34
2019-02-25T08:05:42.758Z,100496.45
2019-02-25T08:11:03.264Z,100504.52
2019-02-25T08:16:27.486Z,100510.77
2019-02-25T08:21:57.471Z,100519.75
2019-02-25T08:27:27.320Z,100519.59
2019-02-25T08:32:51.723Z,100525.64
2019-02-25T08:38:22.952Z,100527.78
2019-02-25T08:43:32.518Z,100522.00
2019-02-25T08:48:42.582Z,100533.31
2019-02-25T08:53:47.777Z,100545.70
2019-02-25T08:58:52.951Z,100546.30
2019-02-25T09:03:58.483Z,100545.36
2019-02-25T09:09:04.460Z,100528.20
2019-02-25T09:14:10.803Z,100536.69
2019-02-25T09:19:16.024Z,100541.38
2019-02-25T09:24:21.288Z,100519.58
2019-02-25T09:29:28.580Z,100516.73
2019-02-25T09:34:33.753Z,100516.81
2019-02-25T09:39:39.270Z,100513.05
2019-02-25T09:44:46.094Z,100522.76
2019-02-25T09:49:51.253Z,100513.39
2019-02-25T09:54:56.720Z,100523.59
2019-02-25T10:00:02.243Z,100520.58
2019-02-25T10:05:08.034Z,100517.66
2019-02-25T10:10:13.905Z,100512.94
2019-02-25T10:15:19.270Z,100500.66
2019-02-25T10:20:24.612Z,100506.64
2019-02-25T10:25:29.788Z,100504.56
2019-02-25T10:30:35.241Z,100497.34
2019-02-25T10:35:40.701Z,100497.64
2019-02-25T10:40:47.511Z,100496.64
2019-02-25T10:45:53.271Z,100493.81
2019-02-25T10:50:58.689Z,100492.89
2019-02-25T10:56:11.240Z,100482.14
2019-02-25T11:01:19.677Z,100483.66
2019-02-25T11:06:25.156Z,100481.59
2019-02-25T11:11:33.805Z,100480.90
2019-02-25T11:16:39.414Z,100471.34
2019-02-25T11:21:45.082Z,100470.66
2019-02-25T11:26:50.327Z,100455.53
2019-02-25T11:31:55.679Z,100458.72
2019-02-25T11:37:00.938Z,100450.13
2019-02-25T11:42:08.032Z,100440.98
2019-02-25T11:47:13.454Z,100431.02
2019-02-25T11:52:18.722Z,100418.71
2019-02-25T11:57:23.966Z,100406.70
2019-02-25T12:02:29.282Z,100392.82
2019-02-25T12:07:34.897Z,100389.41
2019-02-25T12:12:40.148Z,100364.24
2019-02-25T12:17:46.062Z,100355.32
2019-02-25T12:22:51.331Z,100348.33
2019-02-25T12:27:56.944Z,100330.48
2019-02-25T12:33:02.527Z,100328.30
2019-02-25T12:38:07.780Z,100329.83
2019-02-25T12:43:13.155Z,100307.75
2019-02-25T12:48:18.840Z,100297.42
2019-02-25T12:53:24.098Z,100297.17
2019-02-25T12:58:29.347Z,100296.98
2019-02-25T13:03:34.597Z,100288.50
2019-02-25T13:08:39.855Z,100297.98
2019-02-25T13:13:45.101Z,100286.63
2019-02-25T13:18:50.370Z,100276.75
2019-02-25T13:23:56.963Z,100267.66
2019-02-25T13:29:03.556Z,100264.57
2019-02-25T13:34:09.160Z,100260.70
2019-02-25T13:39:14.423Z,100246.28
2019-02-25T13:44:19.890Z,100245.69
2019-02-25T13:49:25.179Z,100242.08
2019-02-25T13:54:30.441Z,100236.70
2019-02-25T13:59:35.796Z,100235.56
2019-02-25T14:04:41.059Z,100235.48
2019-02-25T14:09:46.837Z,100217.38
2019-02-25T14:14:52.899Z,100214.25
2019-02-25T14:19:58.583Z,100223.67
2019-02-25T14:25:05.297Z,100220.72
2019-02-25T14:30:14.424Z,100207.00
2019-02-25T14:35:20.003Z,100207.81
2019-02-25T14:40:26.888Z,100211.30
2019-02-25T14:45:34.457Z,100210.05
2019-02-25T14:50:39.339Z,100210.24
2019-02-25T14:55:47.775Z,100204.84
2019-02-25T15:00:52.544Z,100207.09
2019-02-25T15:05:59.232Z,100205.76
2019-02-25T15:11:07.161Z,100193.00
2019-02-25T15:16:13.489Z,100201.47
2019-02-25T15:21:19.132Z,100204.88
2019-02-25T15:26:25.744Z,100201.92
2019-02-25T15:31:32.459Z,100197.38
2019-02-25T15:36:38.342Z,100197.33
2019-02-25T15:41:44.366Z,100193.73
2019-02-25T15:46:51.126Z,100201.98
2019-02-25T15:51:57.665Z,100202.98
2019-02-25T15:57:03.765Z,100197.27
2019-02-25T16:02:13.663Z,100190.98
2019-02-25T16:07:18.758Z,100193.42
2019-02-25T16:12:25.419Z,100181.70
2019-02-25T16:17:30.995Z,100180.04
2019-02-25T16:22:38.510Z,100189.50
2019-02-25T16:27:45.017Z,100189.91
2019-02-25T16:32:50.328Z,100204.92
2019-02-25T16:37:57.477Z,100210.58
2019-02-25T16:43:04.671Z,100213.69
2019-02-25T16:48:10.014Z,100210.16
2019-02-25T16:53:17.814Z,100204.84
2019-02-25T16:58:22.603Z,100203.36
2019-02-25T17:03:27.971Z,100199.48
2019-02-25T17:08:34.536Z,100201.70
2019-02-25T17:13:41.477Z,100208.69
2019-02-25T17:18:46.924Z,100200.72
2019-02-25T17:23:54.045Z,100209.39
2019-02-25T17:28:59.241Z,100204.91
2019-02-25T17:34:04.494Z,100210.65
2019-02-25T17:39:10.860Z,100206.57
2019-02-25T17:44:17.891Z,100204.26
2019-02-25T17:49:25.788Z,100210.48
2019-02-25T17:54:32.956Z,100215.85
2019-02-25T17:59:39.189Z,100210.07
2019-02-25T18:04:47.025Z,100219.00
2019-02-25T18:09:54.267Z,100219.95
2019-02-25T18:15:01.129Z,100208.80
2019-02-25T18:20:08.586Z,100221.20
2019-02-25T18:25:14.448Z,100216.14
2019-02-25T18:30:20.771Z,100215.49
2019-02-25T18:35:26.579Z,100210.30
2019-02-25T18:40:33.472Z,100211.08
2019-02-25T18:45:41.056Z,100207.25
2019-02-25T18:50:49.493Z,100211.66
2019-02-25T18:55:55.024Z,100206.62
2019-02-25T19:01:01.953Z,100216.25
2019-02-25T19:06:08.400Z,100204.23
2019-02-25T19:11:15.110Z,100207.23
2019-02-25T19:16:24.263Z,100217.26
2019-02-25T19:21:31.755Z,100231.09
2019-02-25T19:26:39.918Z,100239.22
2019-02-25T19:31:45.131Z,100243.64
2019-02-25T19:36:50.964Z,100247.09
2019-02-25T19:41:57.939Z,100235.55
2019-02-25T19:47:03.509Z,100241.77
2019-02-25T19:52:09.718Z,100240.30
2019-02-25T19:57:18.807Z,100237.50
2019-02-25T20:02:24.775Z,100232.54
2019-02-25T20:07:33.258Z,100227.34
2019-02-25T20:12:38.204Z,100220.05
2019-02-25T20:17:46.763Z,100211.34
2019-02-25T20:22:52.171Z,100206.66
2019-02-25T20:27:59.836Z,100201.95
2019-02-25T20:33:06.349Z,100205.59
2019-02-25T20:38:11.738Z,100194.41
2019-02-25T20:43:19.310Z,100194.46
2019-02-25T20:48:24.239Z,100193.03
2019-02-25T20:53:31.672Z,100199.11
2019-02-25T20:58:38.322Z,100191.66
2019-02-25T21:03:46.025Z,100192.93
2019-02-25T21:08:51.887Z,100195.08
2019-02-25T21:13:57.156Z,100206.03
2019-02-25T21:19:02.320Z,100198.47
2019-02-25T21:24:08.760Z,100201.16
2019-02-25T21:29:14.835Z,100208.62
2019-02-25T21:34:24.127Z,100209.61
2019-02-25T21:39:27.608Z,100212.94
2019-02-25T21:44:33.623Z,100210.16
2019-02-25T21:49:40.531Z,100216.27
2019-02-25T21:54:46.202Z,100214.47
2019-02-25T21:59:51.754Z,100222.52
2019-02-25T22:04:56.930Z,100226.46
2019-02-25T22:10:02.410Z,100237.94
2019-02-25T22:15:10.823Z,100227.41
2019-02-25T22:20:19.035Z,100222.75
2019-02-25T22:25:23.781Z,100216.51
2019-02-25T22:30:29.364Z,100212.54
2019-02-25T22:35:37.419Z,100201.44
2019-02-25T22:40:42.107Z,100187.57
2019-02-25T22:45:47.310Z,100183.23
2019-02-25T22:50:55.359Z,100191.58
2019-02-25T22:56:00.308Z,100188.78
2019-02-25T23:01:17.569Z,100171.95
2019-02-25T23:06:21.342Z,100169.14
2019-02-25T23:11:27.555Z,100160.90
2019-02-25T23:16:32.722Z,100165.48
2019-02-25T23:21:38.296Z,100159.94
2019-02-25T23:26:43.629Z,100161.52
2019-02-25T23:31:48.803Z,100165.59
2019-02-25T23:36:55.737Z,100173.38
2019-02-25T23:42:04.698Z,100171.30
2019-02-25T23:47:08.968Z,100171.55
2019-02-25T23:52:15.340Z,100171.78
2019-02-25T23:57:21.751Z,100166.88
